Time;durP1;ratioP1;P1;durP2;ratioP2;P2;SDS_P1;SDS_P2;PMS_P1;PMS_P2;Temp;Humidity;BMP_temperature;BMP_pressure;BME280_temperature;BME280_humidity;BME280_pressure;Samples;Min_cycle;Max_cycle;Signal;HPM_P1;HPM_P2
2021/05/28 00:00:35;;;;;;;3.10;2.58;;;8.70;99.90;;;;;;4751291;30;20051;-84
2021/05/28 00:03:04;;;;;;;3.15;2.75;;;8.80;99.90;;;;;;4737848;30;20632;-83
2021/05/28 00:05:31;;;;;;;3.35;3.05;;;8.80;99.90;;;;;;4767939;30;20052;-84
2021/05/28 00:07:59;;;;;;;2.63;2.42;;;8.80;99.90;;;;;;4737736;30;20060;-84
2021/05/28 00:10:28;;;;;;;4.20;3.85;;;8.70;99.90;;;;;;4714952;30;20044;-84
2021/05/28 00:12:56;;;;;;;6.20;2.58;;;8.70;99.90;;;;;;4716964;30;20049;-84
2021/05/28 00:15:24;;;;;;;3.33;3.13;;;8.70;99.90;;;;;;4717221;30;20064;-83
2021/05/28 00:17:52;;;;;;;4.15;3.47;;;8.70;99.90;;;;;;4716677;30;20056;-83
2021/05/28 00:20:20;;;;;;;2.45;2.25;;;8.70;99.90;;;;;;4716019;30;20056;-83
2021/05/28 00:22:48;;;;;;;2.47;2.28;;;8.60;99.90;;;;;;4732799;30;20078;-83
2021/05/28 00:25:16;;;;;;;2.65;2.45;;;8.60;99.90;;;;;;4714876;30;20055;-83
2021/05/28 00:27:44;;;;;;;3.05;2.75;;;8.70;99.90;;;;;;4702456;30;20057;-83
2021/05/28 00:30:20;;;;;;;2.25;2.15;;;8.70;99.90;;;;;;4702563;30;20063;-83
2021/05/28 00:32:48;;;;;;;2.72;2.53;;;8.70;99.90;;;;;;4731826;30;20056;-83
2021/05/28 00:35:17;;;;;;;3.63;3.38;;;8.70;99.90;;;;;;4732680;30;20456;-83
2021/05/28 00:37:46;;;;;;;3.35;3.05;;;8.70;99.90;;;;;;4751444;30;20051;-83
2021/05/28 00:40:15;;;;;;;2.67;2.47;;;8.70;99.90;;;;;;4765580;30;20059;-83
2021/05/28 00:42:43;;;;;;;3.67;3.47;;;8.70;99.90;;;;;;4749854;30;20055;-83
2021/05/28 00:45:11;;;;;;;2.75;2.55;;;8.70;99.90;;;;;;4736680;30;20090;-83
2021/05/28 00:47:39;;;;;;;3.15;2.85;;;8.70;99.90;;;;;;4724100;30;20052;-83
2021/05/28 00:50:08;;;;;;;4.53;2.78;;;8.70;99.90;;;;;;4700919;30;20044;-85
2021/05/28 00:52:36;;;;;;;3.40;3.05;;;8.70;99.90;;;;;;4715975;30;20052;-83
2021/05/28 00:55:05;;;;;;;3.53;3.22;;;8.60;99.90;;;;;;4730542;30;20053;-83
2021/05/28 00:57:34;;;;;;;7.40;4.43;;;8.60;99.90;;;;;;4716400;30;20048;-83
2021/05/28 01:00:05;;;;;;;6.18;4.15;;;8.60;99.90;;;;;;4732084;30;20056;-83
2021/05/28 01:02:33;;;;;;;;;;;8.60;99.90;;;;;;4702056;30;20056;-82
2021/05/28 01:05:01;;;;;;;3.40;3.10;;;8.60;99.90;;;;;;4715597;30;19931;-83
2021/05/28 01:07:29;;;;;;;12.40;6.22;;;8.60;99.90;;;;;;4731656;30;20063;-82
2021/05/28 01:09:57;;;;;;;4.70;2.72;;;8.60;99.90;;;;;;4698349;30;20059;-83
2021/05/28 01:12:25;;;;;;;4.47;4.07;;;8.60;99.90;;;;;;4730890;30;20064;-83
2021/05/28 01:14:53;;;;;;;3.72;2.97;;;8.60;99.90;;;;;;4702098;30;20057;-83
2021/05/28 01:17:21;;;;;;;4.38;3.97;;;8.60;99.90;;;;;;4715801;30;20048;-83
2021/05/28 01:19:49;;;;;;;3.55;3.25;;;8.60;99.90;;;;;;4731438;30;20068;-83
2021/05/28 01:22:19;;;;;;;3.88;3.20;;;8.70;99.90;;;;;;4715724;30;20515;-83
2021/05/28 01:24:47;;;;;;;3.75;3.45;;;8.70;99.90;;;;;;4729541;30;20060;-83
2021/05/28 01:27:17;;;;;;;4.03;3.72;;;8.70;99.90;;;;;;4731905;30;20071;-83
2021/05/28 01:29:46;;;;;;;4.13;3.70;;;8.70;99.90;;;;;;4730990;30;20300;-82
2021/05/28 01:32:15;;;;;;;3.78;3.47;;;8.70;99.90;;;;;;4701284;30;20420;-83
2021/05/28 01:34:43;;;;;;;4.50;3.72;;;8.70;99.90;;;;;;4700524;30;20507;-83
2021/05/28 01:37:11;;;;;;;6.15;4.43;;;8.70;99.90;;;;;;4743341;30;20040;-83
2021/05/28 01:39:50;;;;;;;3.83;3.53;;;8.70;99.90;;;;;;4748759;30;20052;-83
2021/05/28 01:42:19;;;;;;;5.00;4.28;;;8.70;99.90;;;;;;4750858;30;20060;-83
2021/05/28 01:44:47;;;;;;;4.65;4.25;;;8.70;99.90;;;;;;4747526;30;20403;-84
2021/05/28 01:47:15;;;;;;;4.25;3.88;;;8.70;99.90;;;;;;4733270;30;20064;-84
2021/05/28 01:49:44;;;;;;;4.95;4.55;;;8.70;99.90;;;;;;4718109;30;20059;-84
2021/05/28 01:52:13;;;;;;;5.88;4.40;;;8.70;99.90;;;;;;4748615;30;20075;-82
2021/05/28 01:54:41;;;;;;;4.50;4.10;;;8.80;99.90;;;;;;4747284;30;20052;-83
2021/05/28 01:57:11;;;;;;;4.90;4.50;;;8.80;99.90;;;;;;4747465;30;20056;-82
2021/05/28 01:59:39;;;;;;;4.38;3.97;;;8.80;99.90;;;;;;4749066;30;20056;-83
2021/05/28 02:02:06;;;;;;;3.72;3.42;;;8.80;99.90;;;;;;4748021;30;20052;-80
2021/05/28 02:04:34;;;;;;;3.35;3.13;;;8.80;99.90;;;;;;4748299;30;20060;-79
2021/05/28 02:07:03;;;;;;;5.18;2.95;;;8.80;99.90;;;;;;4749171;30;20060;-80
2021/05/28 02:09:44;;;;;;;3.92;3.63;;;8.80;99.90;;;;;;4716700;30;20522;-79
2021/05/28 02:12:12;;;;;;;2.95;2.75;;;8.80;99.90;;;;;;4713226;30;20064;-79
2021/05/28 02:14:41;;;;;;;3.50;3.20;;;8.80;99.90;;;;;;4713517;30;20053;-79
2021/05/28 02:17:10;;;;;;;3.30;3.10;;;8.80;99.90;;;;;;4713647;30;20492;-79
2021/05/28 02:19:38;;;;;;;4.30;3.38;;;8.80;99.90;;;;;;4712468;30;20064;-79
2021/05/28 02:22:10;;;;;;;3.90;3.60;;;8.80;99.90;;;;;;4715214;30;20061;-79
2021/05/28 02:24:38;;;;;;;3.05;2.85;;;8.80;99.90;;;;;;4715522;30;20049;-79
2021/05/28 02:27:08;;;;;;;4.63;3.85;;;8.70;99.90;;;;;;4717518;30;20063;-79
2021/05/28 02:29:37;;;;;;;3.35;3.05;;;8.70;99.90;;;;;;4717023;30;20063;-80
2021/05/28 02:32:05;;;;;;;3.33;3.03;;;8.80;99.90;;;;;;4715656;30;20061;-79
2021/05/28 02:34:33;;;;;;;4.63;4.32;;;8.70;99.90;;;;;;4716497;30;20056;-79
2021/05/28 02:37:01;;;;;;;3.50;3.20;;;8.70;99.90;;;;;;4742230;30;20049;-79
2021/05/28 02:39:29;;;;;;;3.50;3.25;;;8.70;99.90;;;;;;4750630;30;20064;-79
2021/05/28 02:41:57;;;;;;;8.45;3.92;;;8.70;99.90;;;;;;4750359;30;20056;-80
2021/05/28 02:44:24;;;;;;;2.88;2.60;;;8.70;99.90;;;;;;4765526;30;20070;-79
2021/05/28 02:46:52;;;;;;;5.60;3.65;;;8.60;99.90;;;;;;4753802;30;20056;-79
2021/05/28 02:49:20;;;;;;;6.85;3.35;;;8.60;99.90;;;;;;4733970;30;20048;-79
2021/05/28 02:51:48;;;;;;;4.68;4.03;;;8.60;99.90;;;;;;4718320;30;20068;-80
2021/05/28 02:54:16;;;;;;;3.95;3.65;;;8.60;99.90;;;;;;4732495;30;20526;-80
2021/05/28 02:56:44;;;;;;;4.30;4.00;;;8.50;99.90;;;;;;4718419;30;20415;-79
2021/05/28 02:59:11;;;;;;;3.15;2.83;;;8.60;99.90;;;;;;4734568;30;20131;-79
2021/05/28 03:01:40;;;;;;;3.30;3.03;;;8.70;99.90;;;;;;4733407;30;20138;-80
2021/05/28 03:04:08;;;;;;;4.43;3.80;;;8.50;99.90;;;;;;4733882;30;20071;-79
2021/05/28 03:06:36;;;;;;;4.00;3.22;;;8.50;99.90;;;;;;4733450;30;20060;-79
2021/05/28 03:09:05;;;;;;;4.00;3.25;;;8.50;99.90;;;;;;4732261;30;20052;-80
2021/05/28 03:11:33;;;;;;;3.38;3.08;;;8.50;99.90;;;;;;4733653;30;20077;-80
2021/05/28 03:14:02;;;;;;;3.92;3.53;;;8.50;99.90;;;;;;4732842;30;20052;-79
2021/05/28 03:16:32;;;;;;;3.72;3.40;;;8.50;99.90;;;;;;4732802;30;20512;-79
2021/05/28 03:19:07;;;;;;;3.80;3.53;;;8.50;99.90;;;;;;4718183;30;20530;-79
2021/05/28 03:24:04;;;;;;;3.33;3.08;;;8.50;99.90;;;;;;4732614;30;20137;-79
2021/05/28 03:26:32;;;;;;;3.33;2.90;;;8.50;99.90;;;;;;4717689;30;20063;-79
2021/05/28 03:29:01;;;;;;;4.50;3.97;;;8.50;99.90;;;;;;4733578;30;20571;-80
2021/05/28 03:31:29;;;;;;;3.22;3.03;;;8.50;99.90;;;;;;4732766;30;20093;-80
2021/05/28 03:33:57;;;;;;;5.75;5.25;;;8.50;99.90;;;;;;4716725;30;20072;-79
2021/05/28 03:36:25;;;;;;;4.05;3.63;;;8.50;99.90;;;;;;4750319;30;20070;-79
2021/05/28 03:38:53;;;;;;;4.95;3.45;;;8.50;99.90;;;;;;4751572;30;20066;-79
2021/05/28 03:41:20;;;;;;;4.15;3.80;;;8.50;99.90;;;;;;4767563;30;20094;-79
2021/05/28 03:43:48;;;;;;;3.95;3.55;;;8.50;99.90;;;;;;4768784;30;20068;-80
2021/05/28 03:46:16;;;;;;;4.43;4.03;;;8.50;99.90;;;;;;4768905;30;20044;-80
2021/05/28 03:48:44;;;;;;;2.97;2.78;;;8.40;99.90;;;;;;4768317;30;20040;-80
2021/05/28 03:51:11;;;;;;;4.00;3.60;;;8.50;99.90;;;;;;4768040;30;20059;-80
2021/05/28 03:53:39;;;;;;;3.20;3.00;;;8.50;99.90;;;;;;4766958;30;20104;-80
2021/05/28 03:56:07;;;;;;;3.03;2.72;;;8.50;99.90;;;;;;4769149;30;20071;-79
2021/05/28 03:58:36;;;;;;;3.55;3.20;;;8.50;99.90;;;;;;4768755;30;20059;-80
2021/05/28 04:01:04;;;;;;;28.58;6.45;;;8.60;99.90;;;;;;4767851;30;20156;-80
2021/05/28 04:03:32;;;;;;;3.53;3.15;;;8.60;99.90;;;;;;4768762;30;20060;-80
2021/05/28 04:06:00;;;;;;;3.28;2.83;;;8.60;99.90;;;;;;4767959;30;20403;-79
2021/05/28 04:08:28;;;;;;;3.00;2.80;;;8.70;99.90;;;;;;4763638;30;20415;-80
2021/05/28 04:10:55;;;;;;;6.18;3.13;;;8.70;99.90;;;;;;4732243;30;20053;-80
2021/05/28 04:13:31;;;;;;;2.95;2.75;;;8.70;99.90;;;;;;4716971;30;20401;-79
2021/05/28 04:16:00;;;;;;;3.70;3.40;;;8.70;99.90;;;;;;4733228;30;20393;-80
2021/05/28 04:18:28;;;;;;;4.47;4.07;;;8.70;99.90;;;;;;4732536;30;20512;-79
2021/05/28 04:20:56;;;;;;;5.40;3.35;;;8.80;99.90;;;;;;4732053;30;20065;-80
2021/05/28 04:23:24;;;;;;;4.05;2.88;;;8.80;99.90;;;;;;4732821;30;20677;-79
2021/05/28 04:25:52;;;;;;;4.13;3.15;;;8.70;99.90;;;;;;4730207;30;20057;-80
2021/05/28 04:28:20;;;;;;;4.22;3.83;;;8.80;99.90;;;;;;4732211;30;20076;-80
2021/05/28 04:30:48;;;;;;;3.40;3.10;;;8.80;99.90;;;;;;4732551;30;20072;-79
2021/05/28 04:33:16;;;;;;;3.15;2.88;;;8.80;99.90;;;;;;4732362;30;20522;-80
2021/05/28 04:35:44;;;;;;;3.17;2.88;;;8.80;99.90;;;;;;4739236;30;20060;-80
2021/05/28 04:38:12;;;;;;;2.95;2.75;;;8.80;99.90;;;;;;4751803;30;20052;-80
2021/05/28 04:40:40;;;;;;;2.60;2.40;;;8.70;99.90;;;;;;4765232;30;20410;-79
2021/05/28 04:43:08;;;;;;;4.10;2.92;;;8.70;99.90;;;;;;4768022;30;20451;-79
2021/05/28 04:45:37;;;;;;;2.28;2.05;;;8.70;99.90;;;;;;4767627;30;20052;-79
2021/05/28 04:48:05;;;;;;;4.55;3.53;;;8.70;99.90;;;;;;4731878;30;20060;-79
2021/05/28 04:50:35;;;;;;;3.45;2.63;;;8.80;99.90;;;;;;4729993;30;20059;-78
2021/05/28 04:53:05;;;;;;;2.97;2.55;;;8.80;99.90;;;;;;4732146;30;20057;-79
2021/05/28 04:55:34;;;;;;;7.22;2.67;;;8.80;99.90;;;;;;4729476;30;20072;-79
2021/05/28 04:58:02;;;;;;;3.58;3.28;;;8.80;99.90;;;;;;4732011;30;20045;-79
2021/05/28 05:00:30;;;;;;;3.03;2.67;;;8.90;99.90;;;;;;4731472;30;20072;-79
2021/05/28 05:02:58;;;;;;;4.93;2.78;;;9.00;99.90;;;;;;4732250;30;20492;-79
2021/05/28 05:05:27;;;;;;;3.15;2.95;;;9.10;99.90;;;;;;4715804;30;20063;-79
2021/05/28 05:07:55;;;;;;;3.40;3.10;;;9.20;99.90;;;;;;4732410;30;20076;-78
2021/05/28 05:10:22;;;;;;;3.28;2.85;;;9.20;99.90;;;;;;4729800;30;20056;-78
2021/05/28 05:12:50;;;;;;;2.40;2.20;;;9.30;99.90;;;;;;4731828;30;20556;-78
2021/05/28 05:15:18;;;;;;;12.40;2.97;;;9.30;99.90;;;;;;4731934;30;20056;-79
2021/05/28 05:17:46;;;;;;;6.43;2.85;;;9.30;99.90;;;;;;4731797;30;20048;-78
2021/05/28 05:20:14;;;;;;;3.10;2.85;;;9.40;99.90;;;;;;4731324;30;20061;-78
2021/05/28 05:22:42;;;;;;;4.30;3.00;;;9.50;99.90;;;;;;4731351;30;20059;-78
2021/05/28 05:25:10;;;;;;;6.18;2.67;;;9.60;99.90;;;;;;4730146;30;20060;-78
2021/05/28 05:27:38;;;;;;;4.35;3.67;;;9.70;99.90;;;;;;4731924;30;20064;-79
2021/05/28 05:30:07;;;;;;;3.17;2.90;;;9.80;99.90;;;;;;4714997;30;20037;-79
2021/05/28 05:32:35;;;;;;;3.42;3.13;;;9.90;99.90;;;;;;4731503;30;20061;-80
2021/05/28 05:35:04;;;;;;;4.00;3.60;;;10.00;99.90;;;;;;4731719;30;20330;-78
2021/05/28 05:37:32;;;;;;;3.15;2.85;;;10.10;99.90;;;;;;4763842;30;20072;-83
2021/05/28 05:40:00;;;;;;;4.38;3.53;;;10.10;99.90;;;;;;4719411;30;20506;-83
2021/05/28 05:42:29;;;;;;;5.22;3.97;;;10.20;99.90;;;;;;4721169;30;20074;-83
2021/05/28 05:44:57;;;;;;;3.20;2.90;;;10.20;99.90;;;;;;4735194;30;20056;-83
2021/05/28 05:47:25;;;;;;;4.25;3.95;;;10.10;99.90;;;;;;4735749;30;20055;-83
2021/05/28 05:49:53;;;;;;;3.30;3.00;;;10.10;99.90;;;;;;4734427;30;20427;-84
2021/05/28 05:52:21;;;;;;;3.50;3.15;;;10.00;99.90;;;;;;4765988;30;20159;-83
2021/05/28 05:54:49;;;;;;;7.32;4.28;;;10.00;99.90;;;;;;4733720;30;20062;-83
2021/05/28 05:57:16;;;;;;;3.22;2.85;;;10.00;99.90;;;;;;4749421;30;20052;-85
2021/05/28 05:59:44;;;;;;;3.20;2.90;;;10.10;99.90;;;;;;4765863;30;20372;-83
2021/05/28 06:02:12;;;;;;;4.07;3.08;;;10.00;99.90;;;;;;4749673;30;20048;-83
2021/05/28 06:04:40;;;;;;;3.38;3.08;;;9.90;99.90;;;;;;4765666;30;20549;-83
2021/05/28 06:07:08;;;;;;;3.83;3.40;;;10.00;99.90;;;;;;4750415;30;20399;-83
2021/05/28 06:09:36;;;;;;;4.03;3.63;;;10.10;99.90;;;;;;4734538;30;20056;-83
2021/05/28 06:12:04;;;;;;;3.60;3.35;;;10.10;99.90;;;;;;4729578;30;20061;-83
2021/05/28 06:14:32;;;;;;;3.17;2.58;;;10.20;99.90;;;;;;4730196;30;20049;-82
2021/05/28 06:17:05;;;;;;;3.33;3.00;;;10.20;99.90;;;;;;4715292;30;20423;-83
2021/05/28 06:19:32;;;;;;;3.90;3.22;;;10.20;99.90;;;;;;4700782;30;20060;-83
2021/05/28 06:22:00;;;;;;;4.40;3.35;;;10.40;99.90;;;;;;4713652;30;20049;-83
2021/05/28 06:24:28;;;;;;;2.90;2.45;;;10.60;99.90;;;;;;4713172;30;20066;-81
2021/05/28 06:26:56;;;;;;;5.63;2.78;;;10.80;99.90;;;;;;4731177;30;20072;-82
2021/05/28 06:29:24;;;;;;;3.92;3.25;;;11.10;99.90;;;;;;4700552;30;20397;-79
2021/05/28 06:31:52;;;;;;;3.08;2.78;;;11.10;99.90;;;;;;4730951;30;20076;-78
2021/05/28 06:34:20;;;;;;;3.58;3.05;;;11.20;99.90;;;;;;4730712;30;20053;-78
2021/05/28 06:36:49;;;;;;;9.65;3.50;;;11.20;99.90;;;;;;4737406;30;20040;-77
2021/05/28 06:39:17;;;;;;;4.47;4.13;;;11.20;99.90;;;;;;4765261;30;20059;-78
2021/05/28 06:41:45;;;;;;;3.10;2.47;;;11.20;99.90;;;;;;4765663;30;20051;-78
2021/05/28 06:44:14;;;;;;;3.00;2.80;;;11.20;99.90;;;;;;4766673;30;20064;-77
2021/05/28 06:46:41;;;;;;;4.15;2.95;;;11.30;99.90;;;;;;4740292;30;20055;-77
2021/05/28 06:49:10;;;;;;;3.60;3.25;;;11.40;99.90;;;;;;4730323;30;20056;-77
2021/05/28 06:51:39;;;;;;;3.83;3.45;;;11.40;99.90;;;;;;4730631;30;20270;-78
2021/05/28 06:54:07;;;;;;;3.13;2.67;;;11.40;99.90;;;;;;4729188;30;20070;-77
2021/05/28 06:56:35;;;;;;;2.95;2.58;;;11.80;99.90;;;;;;4730601;30;20052;-78
2021/05/28 06:59:06;;;;;;;3.85;3.35;;;12.10;99.90;;;;;;4731199;30;20063;-78
2021/05/28 07:01:34;;;;;;;2.78;2.55;;;12.90;99.90;;;;;;4713996;30;20056;-78
2021/05/28 07:04:03;;;;;;;3.33;2.55;;;13.50;99.90;;;;;;4730795;30;20064;-77
2021/05/28 07:06:32;;;;;;;3.63;3.40;;;13.50;99.90;;;;;;4730177;30;20486;-78
2021/05/28 07:09:00;;;;;;;3.63;2.40;;;13.40;99.90;;;;;;4700410;30;20065;-78
2021/05/28 07:11:28;;;;;;;7.13;3.03;;;13.10;99.90;;;;;;4733891;30;20091;-78
2021/05/28 07:13:56;;;;;;;2.63;2.25;;;12.70;99.90;;;;;;4733873;30;20061;-78
2021/05/28 07:16:24;;;;;;;2.55;2.35;;;12.40;99.90;;;;;;4717554;30;20053;-77
2021/05/28 07:18:52;;;;;;;3.63;1.90;;;12.30;99.90;;;;;;4733864;30;20439;-78
2021/05/28 07:21:25;;;;;;;2.60;2.40;;;12.30;99.90;;;;;;4733496;30;20068;-79
2021/05/28 07:23:53;;;;;;;3.58;2.05;;;12.40;99.90;;;;;;4732530;30;20504;-77
2021/05/28 07:26:22;;;;;;;6.20;2.50;;;12.50;99.90;;;;;;4718463;30;20048;-77
2021/05/28 07:28:50;;;;;;;3.97;3.28;;;12.60;99.90;;;;;;4733452;30;20048;-78
2021/05/28 07:31:18;;;;;;;4.22;2.88;;;12.90;99.90;;;;;;4733441;30;20064;-77
2021/05/28 07:33:46;;;;;;;2.83;2.55;;;14.30;99.90;;;;;;4732483;30;20061;-78
2021/05/28 07:36:14;;;;;;;2.80;2.60;;;15.50;99.90;;;;;;4748104;30;20063;-78
2021/05/28 07:38:43;;;;;;;4.60;3.67;;;14.60;99.90;;;;;;4767180;30;20048;-78
2021/05/28 07:41:11;;;;;;;2.55;2.28;;;14.20;99.90;;;;;;4767521;30;20052;-78
2021/05/28 07:43:38;;;;;;;3.42;3.13;;;14.10;99.90;;;;;;4769181;30;20064;-78
2021/05/28 07:46:07;;;;;;;4.45;2.95;;;13.50;99.90;;;;;;4768938;30;20048;-78
2021/05/28 07:48:34;;;;;;;5.70;2.60;;;15.50;99.90;;;;;;4768369;30;20510;-78
2021/05/28 07:51:03;;;;;;;2.55;2.35;;;16.70;97.80;;;;;;4768356;30;20086;-78
2021/05/28 07:53:31;;;;;;;3.15;2.85;;;17.50;96.50;;;;;;4767457;30;20040;-79
2021/05/28 07:56:04;;;;;;;2.55;2.35;;;19.40;93.40;;;;;;4767744;30;20055;-78
2021/05/28 07:58:33;;;;;;;2.53;2.30;;;19.70;90.10;;;;;;4768533;30;20059;-78
2021/05/28 08:01:01;;;;;;;3.80;2.38;;;17.50;92.40;;;;;;4767810;30;20554;-78
2021/05/28 08:03:29;;;;;;;3.53;2.25;;;15.50;97.80;;;;;;4752478;30;20056;-78
2021/05/28 08:05:57;;;;;;;3.03;2.72;;;14.40;99.90;;;;;;4768321;30;20051;-78
2021/05/28 08:08:27;;;;;;;3.33;3.03;;;13.60;99.90;;;;;;4764171;30;20064;-78
2021/05/28 08:10:55;;;;;;;2.53;2.33;;;13.10;99.90;;;;;;4732268;30;20056;-79
2021/05/28 08:13:23;;;;;;;3.13;2.78;;;13.70;99.90;;;;;;4732682;30;20061;-78
2021/05/28 08:15:52;;;;;;;4.90;3.15;;;15.10;99.90;;;;;;4733520;30;20068;-78
2021/05/28 08:18:20;;;;;;;6.25;2.90;;;14.80;99.90;;;;;;4732148;30;20053;-78
2021/05/28 08:20:47;;;;;;;3.13;2.83;;;14.50;99.90;;;;;;4731573;30;20480;-78
2021/05/28 08:23:15;;;;;;;2.67;2.47;;;14.30;99.90;;;;;;4732982;30;20060;-77
2021/05/28 08:25:43;;;;;;;5.15;3.72;;;13.40;99.90;;;;;;4730828;30;20053;-78
2021/05/28 08:28:11;;;;;;;3.47;3.17;;;12.90;99.90;;;;;;4733008;30;20052;-78
2021/05/28 08:30:39;;;;;;;2.50;2.13;;;12.60;99.90;;;;;;4732077;30;20511;-78
2021/05/28 08:33:07;;;;;;;3.17;2.88;;;12.60;99.90;;;;;;4731459;30;20147;-78
2021/05/28 08:35:35;;;;;;;4.18;3.40;;;12.50;99.90;;;;;;4721243;30;20059;-78
2021/05/28 08:38:03;;;;;;;5.13;3.22;;;12.50;99.90;;;;;;4767897;30;20493;-78
2021/05/28 08:40:33;;;;;;;4.55;3.47;;;12.60;99.90;;;;;;4765379;30;20056;-78
2021/05/28 08:43:03;;;;;;;9.02;4.45;;;12.70;99.90;;;;;;4768210;30;20079;-79
2021/05/28 08:45:35;;;;;;;3.80;3.40;;;13.00;99.90;;;;;;4767657;30;20047;-78
2021/05/28 08:48:05;;;;;;;3.78;3.47;;;13.40;99.90;;;;;;4751056;30;20068;-78
2021/05/28 08:50:34;;;;;;;4.57;4.18;;;13.60;99.90;;;;;;4733190;30;20052;-78
2021/05/28 08:53:03;;;;;;;7.05;4.20;;;13.40;99.90;;;;;;4749810;30;20055;-77
2021/05/28 08:55:32;;;;;;;9.80;4.20;;;13.10;99.90;;;;;;4747920;30;20079;-78
2021/05/28 08:58:08;;;;;;;3.63;3.33;;;13.00;99.90;;;;;;4745885;30;20045;-78
2021/05/28 09:00:37;;;;;;;6.57;4.43;;;13.20;99.90;;;;;;4731588;30;20520;-77
2021/05/28 09:03:24;;;;;;;3.88;3.50;;;13.20;99.90;;;;;;4732702;30;20496;-77
2021/05/28 09:06:17;;;;;;;5.97;5.28;;;13.20;99.90;;;;;;4732097;30;20053;-78
2021/05/28 09:08:46;;;;;;;2.83;2.63;;;13.30;99.90;;;;;;4714298;30;20053;-78
2021/05/28 09:11:18;;;;;;;6.82;3.75;;;13.30;99.90;;;;;;4716036;30;20061;-77
2021/05/28 09:13:52;;;;;;;3.45;3.13;;;13.20;99.90;;;;;;4731907;30;20048;-78
2021/05/28 09:16:26;;;;;;;4.35;3.58;;;13.10;99.90;;;;;;4731784;30;20056;-77
2021/05/28 09:18:56;;;;;;;4.47;3.60;;;13.10;99.90;;;;;;4731979;30;20065;-77
2021/05/28 09:21:31;;;;;;;3.75;3.45;;;12.90;99.90;;;;;;4715394;30;20056;-78
2021/05/28 09:24:07;;;;;;;4.28;3.60;;;13.00;99.90;;;;;;4730573;30;20059;-78
2021/05/28 09:26:37;;;;;;;3.80;3.35;;;13.10;99.90;;;;;;4716540;30;20049;-78
2021/05/28 09:29:10;;;;;;;3.80;2.88;;;13.10;99.90;;;;;;4731818;30;20053;-78
2021/05/28 09:31:38;;;;;;;5.95;2.92;;;13.20;99.90;;;;;;4730732;30;20067;-78
2021/05/28 09:34:06;;;;;;;3.63;3.33;;;13.40;99.90;;;;;;4731484;30;20516;-78
2021/05/28 09:36:36;;;;;;;5.53;4.38;;;13.40;99.90;;;;;;4750581;30;20148;-79
2021/05/28 09:39:14;;;;;;;4.15;3.85;;;13.40;99.90;;;;;;4765612;30;20071;-78
2021/05/28 09:41:57;;;;;;;3.92;3.10;;;13.20;99.90;;;;;;4750336;30;20066;-78
2021/05/28 09:44:25;;;;;;;3.97;3.63;;;13.00;99.90;;;;;;4750455;30;20063;-77
2021/05/28 09:47:09;;;;;;;4.00;3.70;;;12.90;99.90;;;;;;4751449;30;20444;-79
2021/05/28 09:49:48;;;;;;;6.97;4.80;;;12.90;99.90;;;;;;4766236;30;20518;-78
2021/05/28 09:52:29;;;;;;;7.15;4.18;;;13.00;99.90;;;;;;4766820;30;20063;-78
2021/05/28 09:55:01;;;;;;;4.55;4.15;;;13.10;99.90;;;;;;4733866;30;20078;-78
2021/05/28 09:57:33;;;;;;;7.00;4.18;;;13.20;99.90;;;;;;4766215;30;20055;-84
2021/05/28 10:00:25;;;;;;;4.50;4.10;;;13.30;99.90;;;;;;4735732;30;20060;-84
2021/05/28 10:03:21;;;;;;;4.15;3.75;;;13.30;99.90;;;;;;4705998;30;20066;-83
2021/05/28 10:06:06;;;;;;;3.80;3.50;;;13.20;99.90;;;;;;4735802;30;20054;-84
2021/05/28 10:08:46;;;;;;;6.30;3.92;;;13.20;99.90;;;;;;4755924;30;20052;-85
2021/05/28 10:11:14;;;;;;;3.72;2.92;;;13.10;99.90;;;;;;4700154;30;20064;-85
2021/05/28 10:13:44;;;;;;;4.67;3.57;;;13.00;99.90;;;;;;4706630;30;20509;-87
2021/05/28 10:16:13;;;;;;;6.88;5.05;;;13.10;99.90;;;;;;4715584;30;20104;-86
2021/05/28 10:19:00;;;;;;;5.55;5.13;;;13.00;99.90;;;;;;4698493;30;20059;-85
2021/05/28 10:21:32;;;;;;;5.15;4.35;;;12.90;99.90;;;;;;4700131;30;20044;-85
2021/05/28 10:24:07;;;;;;;4.95;4.47;;;12.90;99.90;;;;;;4685912;30;20057;-85
2021/05/28 10:26:36;;;;;;;5.85;5.03;;;12.90;99.90;;;;;;4700331;30;20431;-85
2021/05/28 10:29:11;;;;;;;6.85;5.18;;;13.10;99.90;;;;;;4698684;30;20407;-85
2021/05/28 10:32:02;;;;;;;7.28;6.10;;;13.30;99.90;;;;;;4700515;30;20056;-85
2021/05/28 10:34:30;;;;;;;9.00;5.15;;;13.50;99.90;;;;;;4714685;30;20060;-85
2021/05/28 10:36:59;;;;;;;6.65;4.43;;;13.70;99.90;;;;;;4724332;30;20055;-85
2021/05/28 10:39:28;;;;;;;9.63;5.70;;;13.60;99.90;;;;;;4734006;30;20060;-85
2021/05/28 10:42:11;;;;;;;5.90;4.70;;;13.70;99.90;;;;;;4749445;30;20062;-85
2021/05/28 10:44:45;;;;;;;6.55;5.95;;;13.70;99.90;;;;;;4738288;30;20402;-85
2021/05/28 10:47:13;;;;;;;7.30;5.88;;;13.70;99.90;;;;;;4725919;30;20433;-85
2021/05/28 10:49:53;;;;;;;5.53;4.80;;;13.70;99.90;;;;;;4718114;30;20539;-85
2021/05/28 10:52:34;;;;;;;6.20;5.28;;;13.80;99.90;;;;;;4718057;30;20057;-84
2021/05/28 10:55:12;;;;;;;;;;;13.90;99.90;;;;;;4688438;30;20056;-87
2021/05/28 10:57:53;;;;;;;6.60;5.80;;;14.00;99.90;;;;;;4703803;30;20392;-86
2021/05/28 11:00:27;;;;;;;6.20;5.72;;;14.20;99.90;;;;;;4703413;30;20060;-85
2021/05/28 11:03:13;;;;;;;5.05;4.55;;;14.30;99.90;;;;;;4705423;30;20056;-86
2021/05/28 11:05:51;;;;;;;7.80;4.95;;;14.60;99.90;;;;;;4733674;30;20060;-85
2021/05/28 11:08:52;;;;;;;4.53;4.00;;;14.50;99.90;;;;;;4717481;30;20483;-87
2021/05/28 11:11:38;;;;;;;4.13;3.72;;;14.80;99.90;;;;;;4717952;30;20072;-86
2021/05/28 11:14:19;;;;;;;5.43;4.75;;;14.70;99.90;;;;;;4704628;30;20435;-85
2021/05/28 11:16:51;;;;;;;6.50;4.72;;;14.40;99.90;;;;;;4703832;30;20419;-86
2021/05/28 11:19:23;;;;;;;5.85;4.43;;;14.30;99.90;;;;;;4703988;30;20064;-85
2021/05/28 11:22:06;;;;;;;6.35;4.85;;;14.40;99.90;;;;;;4717525;30;20064;-85
2021/05/28 11:24:50;;;;;;;4.68;4.22;;;14.60;99.90;;;;;;4701966;30;20407;-85
2021/05/28 11:27:20;;;;;;;7.55;4.15;;;14.70;99.90;;;;;;4704065;30;20052;-84
2021/05/28 11:30:03;;;;;;;6.28;4.32;;;14.70;99.90;;;;;;4703355;30;20056;-85
2021/05/28 11:32:43;;;;;;;6.88;4.32;;;14.80;99.90;;;;;;4717679;30;20056;-85
2021/05/28 11:35:28;;;;;;;5.13;4.55;;;14.80;99.80;;;;;;4718472;30;20053;-85
2021/05/28 11:38:05;;;;;;;6.20;5.60;;;14.70;99.90;;;;;;4697014;30;20530;-86
2021/05/28 11:40:35;;;;;;;8.70;4.72;;;14.80;99.90;;;;;;4701161;30;20614;-84
2021/05/28 11:43:08;;;;;;;5.45;4.93;;;14.80;99.90;;;;;;4703336;30;20052;-86
2021/05/28 11:45:42;;;;;;;6.35;4.85;;;14.70;99.90;;;;;;4703134;30;20270;-83
2021/05/28 11:48:14;;;;;;;5.05;4.65;;;14.70;99.90;;;;;;4703696;30;20666;-86
2021/05/28 11:51:07;;;;;;;10.07;5.10;;;14.60;99.90;;;;;;4702185;30;20048;-84
2021/05/28 11:53:38;;;;;;;6.57;5.93;;;14.70;99.90;;;;;;4714319;30;20076;-85
2021/05/28 11:56:06;;;;;;;5.82;4.22;;;14.90;99.90;;;;;;4703136;30;20056;-86
2021/05/28 11:58:35;;;;;;;4.78;4.38;;;15.00;99.50;;;;;;4702431;30;20051;-84
2021/05/28 12:01:07;;;;;;;4.22;3.50;;;14.70;99.00;;;;;;4695952;30;20416;-84
2021/05/28 12:03:36;;;;;;;4.60;4.18;;;14.50;99.00;;;;;;4717442;30;20368;-87
2021/05/28 12:06:06;;;;;;;5.70;4.63;;;14.50;99.90;;;;;;4716876;30;20056;-85
2021/05/28 12:08:41;;;;;;;4.50;4.10;;;14.70;99.90;;;;;;4714914;30;20053;-86
2021/05/28 12:11:10;;;;;;;5.72;5.22;;;14.50;99.40;;;;;;4716651;30;20056;-85
2021/05/28 12:13:39;;;;;;;4.90;4.05;;;14.40;99.90;;;;;;4716460;30;20052;-84
2021/05/28 12:16:13;;;;;;;4.82;4.43;;;14.60;99.90;;;;;;4716415;30;20412;-85
2021/05/28 12:18:46;;;;;;;3.45;3.17;;;14.50;99.30;;;;;;4716490;30;20060;-82
2021/05/28 12:21:23;;;;;;;4.28;3.88;;;14.70;99.90;;;;;;4716111;30;20051;-84
2021/05/28 12:23:53;;;;;;;6.90;4.88;;;14.90;99.90;;;;;;4715861;30;20523;-84
2021/05/28 12:26:29;;;;;;;6.53;5.88;;;15.20;99.90;;;;;;4688335;30;20064;-84
2021/05/28 12:28:59;;;;;;;4.97;4.47;;;15.00;99.00;;;;;;4716399;30;20056;-86
2021/05/28 12:31:33;;;;;;;7.18;4.40;;;15.10;99.90;;;;;;4702611;30;20061;-84
2021/05/28 12:34:08;;;;;;;7.00;5.55;;;15.10;98.30;;;;;;4701999;30;20099;-78
2021/05/28 12:36:36;;;;;;;5.43;4.97;;;15.20;99.00;;;;;;4751972;30;20411;-79
2021/05/28 12:39:16;;;;;;;4.78;3.95;;;15.40;99.80;;;;;;4766102;30;20074;-78
2021/05/28 12:41:45;;;;;;;10.77;5.28;;;15.10;99.90;;;;;;4767325;30;20075;-78
2021/05/28 12:44:21;;;;;;;5.05;4.60;;;15.20;99.30;;;;;;4768137;30;20559;-78
2021/05/28 12:47:00;;;;;;;4.55;4.10;;;14.70;99.50;;;;;;4751790;30;20059;-79
2021/05/28 12:49:33;;;;;;;6.15;5.65;;;14.60;99.90;;;;;;4716324;30;20068;-78
2021/05/28 12:52:11;;;;;;;7.60;4.07;;;14.50;99.90;;;;;;4731803;30;20149;-77
2021/05/28 12:54:39;;;;;;;5.70;5.15;;;14.50;99.90;;;;;;4730790;30;20052;-79
2021/05/28 12:57:19;;;;;;;7.60;4.60;;;14.50;99.90;;;;;;4732041;30;20063;-79
2021/05/28 12:59:47;;;;;;;4.72;4.32;;;14.50;99.30;;;;;;4732468;30;20072;-79
2021/05/28 13:02:16;;;;;;;5.20;4.68;;;14.50;99.90;;;;;;4731769;30;20057;-78
2021/05/28 13:04:53;;;;;;;3.83;3.53;;;14.50;99.60;;;;;;4731810;30;20069;-78
2021/05/28 13:07:44;;;;;;;5.20;3.38;;;14.60;99.60;;;;;;4731842;30;20060;-78
2021/05/28 13:10:22;;;;;;;6.05;4.32;;;14.80;99.20;;;;;;4730090;30;20071;-78